sensor_id;sensor_type;location;lat;lon;timestamp;temperature;humidity
11559;DHT22;5835;42.930;25.178;2023-05-15T00:01:28;13.90;99.90
11559;DHT22;5835;42.930;25.178;2023-05-15T00:03:56;14.00;99.90
11559;DHT22;5835;42.930;25.178;2023-05-15T00:06:24;14.10;99.90
11559;DHT22;5835;42.930;25.178;2023-05-15T00:08:53;14.20;99.90
11559;DHT22;5835;42.930;25.178;2023-05-15T00:11:20;14.20;99.90
11559;DHT22;5835;42.930;25.178;2023-05-15T00:13:49;14.20;99.90
11559;DHT22;5835;42.930;25.178;2023-05-15T00:16:17;14.20;99.90
11559;DHT22;5835;42.930;25.178;2023-05-15T00:18:45;14.20;99.90
11559;DHT22;5835;42.930;25.178;2023-05-15T00:21:12;14.30;99.90
11559;DHT22;5835;42.930;25.178;2023-05-15T00:23:39;14.10;99.90
11559;DHT22;5835;42.930;25.178;2023-05-15T00:26:07;13.90;99.90
11559;DHT22;5835;42.930;25.178;2023-05-15T00:28:34;14.00;99.90
11559;DHT22;5835;42.930;25.178;2023-05-15T00:31:03;14.00;99.90
11559;DHT22;5835;42.930;25.178;2023-05-15T00:33:31;13.80;99.90
11559;DHT22;5835;42.930;25.178;2023-05-15T00:35:58;13.80;99.90
11559;DHT22;5835;42.930;25.178;2023-05-15T00:38:26;13.80;99.90
11559;DHT22;5835;42.930;25.178;2023-05-15T00:40:54;14.00;99.90
11559;DHT22;5835;42.930;25.178;2023-05-15T00:43:23;13.90;99.90
11559;DHT22;5835;42.930;25.178;2023-05-15T00:45:52;13.90;99.90
11559;DHT22;5835;42.930;25.178;2023-05-15T00:48:21;14.10;99.90
11559;DHT22;5835;42.930;25.178;2023-05-15T00:50:50;14.10;99.90
11559;DHT22;5835;42.930;25.178;2023-05-15T00:53:18;13.90;99.90
11559;DHT22;5835;42.930;25.178;2023-05-15T00:55:45;13.80;99.90
11559;DHT22;5835;42.930;25.178;2023-05-15T00:58:14;13.60;99.90
11559;DHT22;5835;42.930;25.178;2023-05-15T01:00:42;13.60;99.90
11559;DHT22;5835;42.930;25.178;2023-05-15T01:03:11;13.40;99.90
11559;DHT22;5835;42.930;25.178;2023-05-15T01:05:40;13.30;99.90
11559;DHT22;5835;42.930;25.178;2023-05-15T01:08:15;13.20;99.90
11559;DHT22;5835;42.930;25.178;2023-05-15T01:10:47;13.10;99.90
11559;DHT22;5835;42.930;25.178;2023-05-15T01:13:15;13.20;99.90
11559;DHT22;5835;42.930;25.178;2023-05-15T01:15:46;13.30;99.90
11559;DHT22;5835;42.930;25.178;2023-05-15T01:18:13;13.30;99.90
11559;DHT22;5835;42.930;25.178;2023-05-15T01:20:54;13.20;99.90
11559;DHT22;5835;42.930;25.178;2023-05-15T01:23:37;13.20;99.90
11559;DHT22;5835;42.930;25.178;2023-05-15T01:29:16;13.40;99.90
11559;DHT22;5835;42.930;25.178;2023-05-15T01:31:50;13.40;99.90
11559;DHT22;5835;42.930;25.178;2023-05-15T01:34:22;13.50;99.90
11559;DHT22;5835;42.930;25.178;2023-05-15T01:36:54;13.40;99.90
11559;DHT22;5835;42.930;25.178;2023-05-15T01:39:24;13.30;99.90
11559;DHT22;5835;42.930;25.178;2023-05-15T01:41:56;13.20;99.90
11559;DHT22;5835;42.930;25.178;2023-05-15T01:44:29;13.20;99.90
11559;DHT22;5835;42.930;25.178;2023-05-15T01:47:00;13.20;99.90
11559;DHT22;5835;42.930;25.178;2023-05-15T01:49:31;13.20;99.90
11559;DHT22;5835;42.930;25.178;2023-05-15T01:52:04;13.10;99.90
11559;DHT22;5835;42.930;25.178;2023-05-15T01:54:33;13.20;99.90
11559;DHT22;5835;42.930;25.178;2023-05-15T01:57:02;13.30;99.90
11559;DHT22;5835;42.930;25.178;2023-05-15T01:59:32;13.40;99.90
11559;DHT22;5835;42.930;25.178;2023-05-15T02:02:02;13.20;99.90
11559;DHT22;5835;42.930;25.178;2023-05-15T02:04:32;12.90;99.90
11559;DHT22;5835;42.930;25.178;2023-05-15T02:07:00;12.50;99.90
11559;DHT22;5835;42.930;25.178;2023-05-15T02:09:29;12.40;99.90
11559;DHT22;5835;42.930;25.178;2023-05-15T02:11:58;12.30;99.90
11559;DHT22;5835;42.930;25.178;2023-05-15T02:14:27;12.20;99.90
11559;DHT22;5835;42.930;25.178;2023-05-15T02:16:56;12.20;99.90
11559;DHT22;5835;42.930;25.178;2023-05-15T02:19:24;12.30;99.90
11559;DHT22;5835;42.930;25.178;2023-05-15T02:21:51;12.40;99.90
11559;DHT22;5835;42.930;25.178;2023-05-15T02:24:19;12.40;99.90
11559;DHT22;5835;42.930;25.178;2023-05-15T02:26:51;12.50;99.90
11559;DHT22;5835;42.930;25.178;2023-05-15T02:29:25;12.60;99.90
11559;DHT22;5835;42.930;25.178;2023-05-15T02:32:01;12.60;99.90
11559;DHT22;5835;42.930;25.178;2023-05-15T02:34:37;12.50;99.90
11559;DHT22;5835;42.930;25.178;2023-05-15T02:37:12;12.40;99.90
11559;DHT22;5835;42.930;25.178;2023-05-15T02:39:41;12.40;99.90
11559;DHT22;5835;42.930;25.178;2023-05-15T02:42:12;12.50;99.90
11559;DHT22;5835;42.930;25.178;2023-05-15T02:44:41;12.60;99.90
11559;DHT22;5835;42.930;25.178;2023-05-15T02:47:11;12.50;99.90
11559;DHT22;5835;42.930;25.178;2023-05-15T02:49:40;12.30;99.90
11559;DHT22;5835;42.930;25.178;2023-05-15T02:52:08;12.30;99.90
11559;DHT22;5835;42.930;25.178;2023-05-15T02:54:35;12.20;99.90
11559;DHT22;5835;42.930;25.178;2023-05-15T02:57:03;11.90;99.90
11559;DHT22;5835;42.930;25.178;2023-05-15T02:59:32;11.90;99.90
11559;DHT22;5835;42.930;25.178;2023-05-15T03:02:00;12.10;99.90
11559;DHT22;5835;42.930;25.178;2023-05-15T03:04:30;12.00;99.90
11559;DHT22;5835;42.930;25.178;2023-05-15T03:06:57;12.00;99.90
11559;DHT22;5835;42.930;25.178;2023-05-15T03:09:25;12.10;99.90
11559;DHT22;5835;42.930;25.178;2023-05-15T03:11:53;12.20;99.90
11559;DHT22;5835;42.930;25.178;2023-05-15T03:14:21;12.30;99.90
11559;DHT22;5835;42.930;25.178;2023-05-15T03:16:48;12.60;99.90
11559;DHT22;5835;42.930;25.178;2023-05-15T03:19:16;12.80;99.90
11559;DHT22;5835;42.930;25.178;2023-05-15T03:21:45;12.70;99.90
11559;DHT22;5835;42.930;25.178;2023-05-15T03:24:12;12.60;99.90
11559;DHT22;5835;42.930;25.178;2023-05-15T03:26:40;12.50;99.90
11559;DHT22;5835;42.930;25.178;2023-05-15T03:29:09;12.50;99.90
11559;DHT22;5835;42.930;25.178;2023-05-15T03:31:36;12.60;99.90
11559;DHT22;5835;42.930;25.178;2023-05-15T03:34:04;12.60;99.90
11559;DHT22;5835;42.930;25.178;2023-05-15T03:36:31;12.60;99.90
11559;DHT22;5835;42.930;25.178;2023-05-15T03:39:00;12.60;99.90
11559;DHT22;5835;42.930;25.178;2023-05-15T03:41:27;12.60;99.90
11559;DHT22;5835;42.930;25.178;2023-05-15T03:43:55;12.30;99.90
11559;DHT22;5835;42.930;25.178;2023-05-15T03:46:22;12.60;99.90
11559;DHT22;5835;42.930;25.178;2023-05-15T03:48:50;12.60;99.90
11559;DHT22;5835;42.930;25.178;2023-05-15T03:51:19;13.00;99.90
11559;DHT22;5835;42.930;25.178;2023-05-15T03:53:46;13.40;99.90
11559;DHT22;5835;42.930;25.178;2023-05-15T03:56:16;13.30;99.90
11559;DHT22;5835;42.930;25.178;2023-05-15T03:58:43;13.20;99.90
11559;DHT22;5835;42.930;25.178;2023-05-15T04:01:11;13.30;99.90
11559;DHT22;5835;42.930;25.178;2023-05-15T04:03:38;13.30;99.90
11559;DHT22;5835;42.930;25.178;2023-05-15T04:06:06;13.30;99.90
11559;DHT22;5835;42.930;25.178;2023-05-15T04:08:33;13.30;99.90
11559;DHT22;5835;42.930;25.178;2023-05-15T04:11:01;13.30;99.90
11559;DHT22;5835;42.930;25.178;2023-05-15T04:13:30;13.50;99.90
11559;DHT22;5835;42.930;25.178;2023-05-15T04:15:57;13.40;99.90
11559;DHT22;5835;42.930;25.178;2023-05-15T04:18:26;13.60;99.90
11559;DHT22;5835;42.930;25.178;2023-05-15T04:20:53;13.80;99.90
11559;DHT22;5835;42.930;25.178;2023-05-15T04:23:21;13.60;99.90
11559;DHT22;5835;42.930;25.178;2023-05-15T04:25:48;13.50;99.90
11559;DHT22;5835;42.930;25.178;2023-05-15T04:28:18;13.50;99.90
11559;DHT22;5835;42.930;25.178;2023-05-15T04:30:48;13.40;99.90
11559;DHT22;5835;42.930;25.178;2023-05-15T04:33:15;13.30;99.90
11559;DHT22;5835;42.930;25.178;2023-05-15T04:35:43;13.40;99.90
11559;DHT22;5835;42.930;25.178;2023-05-15T04:38:10;13.40;99.90
11559;DHT22;5835;42.930;25.178;2023-05-15T04:40:38;13.40;99.90
11559;DHT22;5835;42.930;25.178;2023-05-15T04:43:05;13.40;99.90
11559;DHT22;5835;42.930;25.178;2023-05-15T04:45:33;13.40;99.90
11559;DHT22;5835;42.930;25.178;2023-05-15T04:48:02;13.50;99.90
11559;DHT22;5835;42.930;25.178;2023-05-15T04:50:30;13.80;99.90
11559;DHT22;5835;42.930;25.178;2023-05-15T04:52:58;13.80;99.90
11559;DHT22;5835;42.930;25.178;2023-05-15T04:55:25;13.60;99.90
11559;DHT22;5835;42.930;25.178;2023-05-15T04:57:53;13.60;99.90
11559;DHT22;5835;42.930;25.178;2023-05-15T05:00:23;13.60;99.90
11559;DHT22;5835;42.930;25.178;2023-05-15T05:02:51;13.70;99.90
11559;DHT22;5835;42.930;25.178;2023-05-15T05:05:22;13.70;99.90
11559;DHT22;5835;42.930;25.178;2023-05-15T05:07:49;14.00;99.90
11559;DHT22;5835;42.930;25.178;2023-05-15T05:10:17;14.30;99.90
11559;DHT22;5835;42.930;25.178;2023-05-15T05:12:44;14.50;99.90
11559;DHT22;5835;42.930;25.178;2023-05-15T05:15:12;14.60;99.90
11559;DHT22;5835;42.930;25.178;2023-05-15T05:17:40;14.60;99.90
11559;DHT22;5835;42.930;25.178;2023-05-15T05:20:08;14.80;99.90
11559;DHT22;5835;42.930;25.178;2023-05-15T05:22:39;14.90;99.90
11559;DHT22;5835;42.930;25.178;2023-05-15T05:25:07;15.00;99.90
11559;DHT22;5835;42.930;25.178;2023-05-15T05:27:35;15.20;99.90
11559;DHT22;5835;42.930;25.178;2023-05-15T05:30:03;15.00;99.90
11559;DHT22;5835;42.930;25.178;2023-05-15T05:32:30;14.90;99.90
11559;DHT22;5835;42.930;25.178;2023-05-15T05:34:58;14.90;99.90
11559;DHT22;5835;42.930;25.178;2023-05-15T05:37:25;14.80;99.90
11559;DHT22;5835;42.930;25.178;2023-05-15T05:39:54;14.90;99.90
11559;DHT22;5835;42.930;25.178;2023-05-15T05:42:22;14.70;99.90
11559;DHT22;5835;42.930;25.178;2023-05-15T05:44:49;14.50;99.90
11559;DHT22;5835;42.930;25.178;2023-05-15T05:47:17;14.50;99.90
11559;DHT22;5835;42.930;25.178;2023-05-15T05:49:44;14.60;99.90
11559;DHT22;5835;42.930;25.178;2023-05-15T05:52:14;14.50;99.90
11559;DHT22;5835;42.930;25.178;2023-05-15T05:54:42;14.50;99.90
11559;DHT22;5835;42.930;25.178;2023-05-15T05:57:14;14.60;99.90
11559;DHT22;5835;42.930;25.178;2023-05-15T05:59:41;14.70;99.90
11559;DHT22;5835;42.930;25.178;2023-05-15T06:02:09;14.90;99.90
11559;DHT22;5835;42.930;25.178;2023-05-15T06:04:37;14.80;99.90
11559;DHT22;5835;42.930;25.178;2023-05-15T06:07:06;15.00;99.90
11559;DHT22;5835;42.930;25.178;2023-05-15T06:09:33;15.30;99.90
11559;DHT22;5835;42.930;25.178;2023-05-15T06:12:01;15.20;99.90
11559;DHT22;5835;42.930;25.178;2023-05-15T06:14:31;15.50;99.90
11559;DHT22;5835;42.930;25.178;2023-05-15T06:16:59;15.70;99.90
11559;DHT22;5835;42.930;25.178;2023-05-15T06:19:27;16.10;99.90
11559;DHT22;5835;42.930;25.178;2023-05-15T06:21:55;16.10;83.10
11559;DHT22;5835;42.930;25.178;2023-05-15T06:24:22;16.30;53.50
11559;DHT22;5835;42.930;25.178;2023-05-15T06:26:50;16.50;29.30
11559;DHT22;5835;42.930;25.178;2023-05-15T06:29:17;16.90;1.00
11559;DHT22;5835;42.930;25.178;2023-05-15T06:31:46;17.30;1.00
11559;DHT22;5835;42.930;25.178;2023-05-15T06:34:13;17.60;1.00
11559;DHT22;5835;42.930;25.178;2023-05-15T06:36:41;17.50;1.00
11559;DHT22;5835;42.930;25.178;2023-05-15T06:39:09;17.40;1.00
11559;DHT22;5835;42.930;25.178;2023-05-15T06:41:36;17.30;1.00
11559;DHT22;5835;42.930;25.178;2023-05-15T06:44:04;17.30;1.00
11559;DHT22;5835;42.930;25.178;2023-05-15T06:46:32;17.60;1.00
11559;DHT22;5835;42.930;25.178;2023-05-15T06:49:01;17.70;99.90
11559;DHT22;5835;42.930;25.178;2023-05-15T06:51:28;17.60;99.90
11559;DHT22;5835;42.930;25.178;2023-05-15T06:53:56;17.90;1.00
11559;DHT22;5835;42.930;25.178;2023-05-15T06:56:24;18.10;62.50
11559;DHT22;5835;42.930;25.178;2023-05-15T06:58:51;18.00;1.00
11559;DHT22;5835;42.930;25.178;2023-05-15T07:01:19;18.20;99.90
11559;DHT22;5835;42.930;25.178;2023-05-15T07:03:46;18.30;29.50
11559;DHT22;5835;42.930;25.178;2023-05-15T07:06:15;18.70;1.00
11559;DHT22;5835;42.930;25.178;2023-05-15T07:08:43;18.70;31.10
11559;DHT22;5835;42.930;25.178;2023-05-15T07:11:11;18.80;99.90
11559;DHT22;5835;42.930;25.178;2023-05-15T07:13:38;18.90;1.00
11559;DHT22;5835;42.930;25.178;2023-05-15T07:16:06;19.10;1.00
11559;DHT22;5835;42.930;25.178;2023-05-15T07:18:33;19.10;99.90
11559;DHT22;5835;42.930;25.178;2023-05-15T07:21:01;19.30;99.90
11559;DHT22;5835;42.930;25.178;2023-05-15T07:23:30;20.00;91.40
11559;DHT22;5835;42.930;25.178;2023-05-15T07:25:57;20.00;1.00
11559;DHT22;5835;42.930;25.178;2023-05-15T07:28:25;20.10;99.90
11559;DHT22;5835;42.930;25.178;2023-05-15T07:30:52;20.50;99.90
11559;DHT22;5835;42.930;25.178;2023-05-15T07:33:21;20.50;99.90
11559;DHT22;5835;42.930;25.178;2023-05-15T07:35:50;20.50;99.90
11559;DHT22;5835;42.930;25.178;2023-05-15T07:38:17;20.20;99.90
11559;DHT22;5835;42.930;25.178;2023-05-15T07:40:46;20.10;99.90
11559;DHT22;5835;42.930;25.178;2023-05-15T07:43:14;19.80;99.90
11559;DHT22;5835;42.930;25.178;2023-05-15T07:45:41;19.80;1.00
11559;DHT22;5835;42.930;25.178;2023-05-15T07:48:15;20.10;1.00
11559;DHT22;5835;42.930;25.178;2023-05-15T07:50:44;20.50;99.90
11559;DHT22;5835;42.930;25.178;2023-05-15T07:53:12;20.40;99.90
11559;DHT22;5835;42.930;25.178;2023-05-15T07:55:42;20.50;99.90
11559;DHT22;5835;42.930;25.178;2023-05-15T07:58:11;20.10;99.90
11559;DHT22;5835;42.930;25.178;2023-05-15T08:00:39;20.00;1.00
11559;DHT22;5835;42.930;25.178;2023-05-15T08:03:06;20.00;99.90
11559;DHT22;5835;42.930;25.178;2023-05-15T08:05:34;20.10;99.90
11559;DHT22;5835;42.930;25.178;2023-05-15T08:08:01;20.40;99.90
11559;DHT22;5835;42.930;25.178;2023-05-15T08:10:29;21.10;1.00
11559;DHT22;5835;42.930;25.178;2023-05-15T08:12:56;21.10;1.00
11559;DHT22;5835;42.930;25.178;2023-05-15T08:15:25;21.00;1.00
11559;DHT22;5835;42.930;25.178;2023-05-15T08:17:54;20.80;1.00
11559;DHT22;5835;42.930;25.178;2023-05-15T08:20:21;20.90;1.00
11559;DHT22;5835;42.930;25.178;2023-05-15T08:22:49;21.20;1.00
11559;DHT22;5835;42.930;25.178;2023-05-15T08:25:17;21.30;38.10
11559;DHT22;5835;42.930;25.178;2023-05-15T08:27:44;21.40;1.00
11559;DHT22;5835;42.930;25.178;2023-05-15T08:30:12;21.40;25.30
11559;DHT22;5835;42.930;25.178;2023-05-15T08:32:42;21.20;44.30
11559;DHT22;5835;42.930;25.178;2023-05-15T08:35:10;22.00;1.00
11559;DHT22;5835;42.930;25.178;2023-05-15T08:37:38;22.30;1.00
11559;DHT22;5835;42.930;25.178;2023-05-15T08:40:06;22.10;99.90
11559;DHT22;5835;42.930;25.178;2023-05-15T08:42:39;22.20;99.90
11559;DHT22;5835;42.930;25.178;2023-05-15T08:45:11;21.80;1.00
11559;DHT22;5835;42.930;25.178;2023-05-15T08:47:41;22.10;1.00
11559;DHT22;5835;42.930;25.178;2023-05-15T08:50:10;22.00;1.00
11559;DHT22;5835;42.930;25.178;2023-05-15T08:52:41;21.80;23.80
11559;DHT22;5835;42.930;25.178;2023-05-15T08:55:09;21.60;99.90
11559;DHT22;5835;42.930;25.178;2023-05-15T08:57:37;21.70;99.90
11559;DHT22;5835;42.930;25.178;2023-05-15T09:00:07;21.30;1.00
11559;DHT22;5835;42.930;25.178;2023-05-15T09:02:37;21.10;1.00
11559;DHT22;5835;42.930;25.178;2023-05-15T09:05:07;20.70;82.90
11559;DHT22;5835;42.930;25.178;2023-05-15T09:07:37;20.80;99.90
11559;DHT22;5835;42.930;25.178;2023-05-15T09:10:06;20.90;99.90
11559;DHT22;5835;42.930;25.178;2023-05-15T09:12:35;21.10;1.00
11559;DHT22;5835;42.930;25.178;2023-05-15T09:15:09;21.00;1.00
11559;DHT22;5835;42.930;25.178;2023-05-15T09:17:37;21.30;99.90
11559;DHT22;5835;42.930;25.178;2023-05-15T09:20:24;21.30;1.00
11559;DHT22;5835;42.930;25.178;2023-05-15T09:22:52;20.70;99.90
11559;DHT22;5835;42.930;25.178;2023-05-15T09:25:35;20.20;1.00
11559;DHT22;5835;42.930;25.178;2023-05-15T09:28:04;19.90;99.90
11559;DHT22;5835;42.930;25.178;2023-05-15T09:30:31;19.80;1.00
11559;DHT22;5835;42.930;25.178;2023-05-15T09:33:00;19.90;99.90
11559;DHT22;5835;42.930;25.178;2023-05-15T09:35:35;19.60;99.90
11559;DHT22;5835;42.930;25.178;2023-05-15T09:38:06;19.70;99.90
11559;DHT22;5835;42.930;25.178;2023-05-15T09:40:35;19.80;1.00
11559;DHT22;5835;42.930;25.178;2023-05-15T09:43:02;19.90;1.00
11559;DHT22;5835;42.930;25.178;2023-05-15T09:45:30;20.50;99.90
11559;DHT22;5835;42.930;25.178;2023-05-15T09:47:59;20.60;1.00
11559;DHT22;5835;42.930;25.178;2023-05-15T09:50:34;20.70;99.90
11559;DHT22;5835;42.930;25.178;2023-05-15T09:53:02;20.50;1.00
11559;DHT22;5835;42.930;25.178;2023-05-15T09:55:31;20.50;1.00
11559;DHT22;5835;42.930;25.178;2023-05-15T09:58:06;20.80;1.00
11559;DHT22;5835;42.930;25.178;2023-05-15T10:00:35;20.30;99.90
11559;DHT22;5835;42.930;25.178;2023-05-15T10:03:04;20.70;99.90
11559;DHT22;5835;42.930;25.178;2023-05-15T10:05:33;20.80;99.90
11559;DHT22;5835;42.930;25.178;2023-05-15T10:08:01;21.10;1.00
11559;DHT22;5835;42.930;25.178;2023-05-15T10:10:30;21.60;1.00
11559;DHT22;5835;42.930;25.178;2023-05-15T10:12:59;21.50;99.90
11559;DHT22;5835;42.930;25.178;2023-05-15T10:15:30;21.60;99.90
11559;DHT22;5835;42.930;25.178;2023-05-15T10:17:58;21.80;99.90
11559;DHT22;5835;42.930;25.178;2023-05-15T10:20:26;21.40;99.90
11559;DHT22;5835;42.930;25.178;2023-05-15T10:22:56;21.60;99.90
11559;DHT22;5835;42.930;25.178;2023-05-15T10:25:29;22.10;1.00
11559;DHT22;5835;42.930;25.178;2023-05-15T10:27:59;21.60;99.90
11559;DHT22;5835;42.930;25.178;2023-05-15T10:30:27;21.30;99.90
11559;DHT22;5835;42.930;25.178;2023-05-15T10:32:55;21.40;1.00
11559;DHT22;5835;42.930;25.178;2023-05-15T10:35:24;21.20;99.90
11559;DHT22;5835;42.930;25.178;2023-05-15T10:37:52;21.40;1.00
11559;DHT22;5835;42.930;25.178;2023-05-15T10:40:22;21.60;1.00
11559;DHT22;5835;42.930;25.178;2023-05-15T10:42:50;22.00;1.00
11559;DHT22;5835;42.930;25.178;2023-05-15T10:45:18;22.30;1.00
11559;DHT22;5835;42.930;25.178;2023-05-15T10:47:46;22.60;99.90
11559;DHT22;5835;42.930;25.178;2023-05-15T10:50:14;22.30;99.90
11559;DHT22;5835;42.930;25.178;2023-05-15T10:52:42;22.50;99.90
11559;DHT22;5835;42.930;25.178;2023-05-15T10:55:13;22.80;55.00
11559;DHT22;5835;42.930;25.178;2023-05-15T10:57:44;23.10;1.00
11559;DHT22;5835;42.930;25.178;2023-05-15T11:00:25;23.60;1.00
11559;DHT22;5835;42.930;25.178;2023-05-15T11:02:53;23.60;1.00
11559;DHT22;5835;42.930;25.178;2023-05-15T11:05:23;23.40;1.00
11559;DHT22;5835;42.930;25.178;2023-05-15T11:08:22;23.60;1.00
11559;DHT22;5835;42.930;25.178;2023-05-15T11:10:52;23.60;1.00
11559;DHT22;5835;42.930;25.178;2023-05-15T11:13:22;23.90;1.00
11559;DHT22;5835;42.930;25.178;2023-05-15T11:15:50;23.90;1.00
11559;DHT22;5835;42.930;25.178;2023-05-15T11:18:19;24.00;1.00
11559;DHT22;5835;42.930;25.178;2023-05-15T11:21:05;24.00;1.00
11559;DHT22;5835;42.930;25.178;2023-05-15T11:23:40;23.90;1.00
11559;DHT22;5835;42.930;25.178;2023-05-15T11:26:07;23.90;1.00
11559;DHT22;5835;42.930;25.178;2023-05-15T11:28:42;24.20;1.00
11559;DHT22;5835;42.930;25.178;2023-05-15T11:31:11;24.30;1.00
11559;DHT22;5835;42.930;25.178;2023-05-15T11:33:40;24.30;1.00
11559;DHT22;5835;42.930;25.178;2023-05-15T11:36:07;24.30;1.00
11559;DHT22;5835;42.930;25.178;2023-05-15T11:38:37;24.40;1.00
11559;DHT22;5835;42.930;25.178;2023-05-15T11:41:17;24.10;1.00
11559;DHT22;5835;42.930;25.178;2023-05-15T11:43:47;24.00;1.00
11559;DHT22;5835;42.930;25.178;2023-05-15T11:46:15;24.00;1.00
11559;DHT22;5835;42.930;25.178;2023-05-15T11:48:44;24.00;1.00
11559;DHT22;5835;42.930;25.178;2023-05-15T11:51:16;24.10;1.00
11559;DHT22;5835;42.930;25.178;2023-05-15T11:53:44;24.00;1.00
11559;DHT22;5835;42.930;25.178;2023-05-15T11:56:16;24.00;1.00
11559;DHT22;5835;42.930;25.178;2023-05-15T11:58:47;24.20;1.00
11559;DHT22;5835;42.930;25.178;2023-05-15T12:01:14;24.30;1.00
11559;DHT22;5835;42.930;25.178;2023-05-15T12:03:42;24.30;1.00
11559;DHT22;5835;42.930;25.178;2023-05-15T12:06:13;24.20;1.00
11559;DHT22;5835;42.930;25.178;2023-05-15T12:08:40;24.20;1.00
11559;DHT22;5835;42.930;25.178;2023-05-15T12:11:09;24.20;1.00
11559;DHT22;5835;42.930;25.178;2023-05-15T12:13:36;24.40;1.00
11559;DHT22;5835;42.930;25.178;2023-05-15T12:16:06;24.40;1.00
11559;DHT22;5835;42.930;25.178;2023-05-15T12:18:33;24.20;1.00
11559;DHT22;5835;42.930;25.178;2023-05-15T12:21:03;24.30;1.00
11559;DHT22;5835;42.930;25.178;2023-05-15T12:23:31;24.00;99.90
11559;DHT22;5835;42.930;25.178;2023-05-15T12:26:00;23.90;99.90
11559;DHT22;5835;42.930;25.178;2023-05-15T12:28:30;23.90;99.90
11559;DHT22;5835;42.930;25.178;2023-05-15T12:30:58;24.00;99.90
11559;DHT22;5835;42.930;25.178;2023-05-15T12:33:27;23.80;99.90
11559;DHT22;5835;42.930;25.178;2023-05-15T12:35:55;24.00;99.90
11559;DHT22;5835;42.930;25.178;2023-05-15T12:38:23;23.90;99.90
11559;DHT22;5835;42.930;25.178;2023-05-15T12:40:51;23.30;99.90
11559;DHT22;5835;42.930;25.178;2023-05-15T12:43:22;23.20;1.00
11559;DHT22;5835;42.930;25.178;2023-05-15T12:45:52;23.10;1.00
11559;DHT22;5835;42.930;25.178;2023-05-15T12:48:20;23.00;1.00
11559;DHT22;5835;42.930;25.178;2023-05-15T12:50:49;23.00;1.00
11559;DHT22;5835;42.930;25.178;2023-05-15T12:53:16;23.10;99.90
11559;DHT22;5835;42.930;25.178;2023-05-15T12:55:45;23.30;1.00
11559;DHT22;5835;42.930;25.178;2023-05-15T12:58:14;23.20;99.90
11559;DHT22;5835;42.930;25.178;2023-05-15T13:00:44;22.50;99.90
11559;DHT22;5835;42.930;25.178;2023-05-15T13:03:13;21.90;99.90
11559;DHT22;5835;42.930;25.178;2023-05-15T13:05:43;21.80;99.90
11559;DHT22;5835;42.930;25.178;2023-05-15T13:08:16;22.20;99.90
11559;DHT22;5835;42.930;25.178;2023-05-15T13:10:45;21.90;99.90
11559;DHT22;5835;42.930;25.178;2023-05-15T13:13:13;21.60;99.90
11559;DHT22;5835;42.930;25.178;2023-05-15T13:15:43;21.80;99.90
11559;DHT22;5835;42.930;25.178;2023-05-15T13:18:12;22.20;1.00
11559;DHT22;5835;42.930;25.178;2023-05-15T13:20:42;22.30;99.90
11559;DHT22;5835;42.930;25.178;2023-05-15T13:23:11;21.80;1.00
11559;DHT22;5835;42.930;25.178;2023-05-15T13:25:41;21.80;1.00
11559;DHT22;5835;42.930;25.178;2023-05-15T13:28:10;21.80;17.60
11559;DHT22;5835;42.930;25.178;2023-05-15T13:30:39;22.40;1.00
11559;DHT22;5835;42.930;25.178;2023-05-15T13:33:07;22.60;1.00
11559;DHT22;5835;42.930;25.178;2023-05-15T13:35:35;22.50;40.40
11559;DHT22;5835;42.930;25.178;2023-05-15T13:38:03;22.90;99.90
11559;DHT22;5835;42.930;25.178;2023-05-15T13:40:31;23.20;99.90
11559;DHT22;5835;42.930;25.178;2023-05-15T13:43:01;23.50;1.00
11559;DHT22;5835;42.930;25.178;2023-05-15T13:45:31;24.20;1.00
11559;DHT22;5835;42.930;25.178;2023-05-15T13:47:58;24.10;99.90
11559;DHT22;5835;42.930;25.178;2023-05-15T13:50:26;24.40;1.00
11559;DHT22;5835;42.930;25.178;2023-05-15T13:52:53;24.30;1.00
11559;DHT22;5835;42.930;25.178;2023-05-15T13:55:21;24.10;11.40
11559;DHT22;5835;42.930;25.178;2023-05-15T13:57:50;23.70;1.00
11559;DHT22;5835;42.930;25.178;2023-05-15T14:00:23;23.80;4.00
11559;DHT22;5835;42.930;25.178;2023-05-15T14:02:51;23.80;99.90
11559;DHT22;5835;42.930;25.178;2023-05-15T14:05:18;23.50;99.90
11559;DHT22;5835;42.930;25.178;2023-05-15T14:07:46;23.50;99.90
11559;DHT22;5835;42.930;25.178;2023-05-15T14:10:14;23.80;99.90
11559;DHT22;5835;42.930;25.178;2023-05-15T14:12:41;23.40;29.00
11559;DHT22;5835;42.930;25.178;2023-05-15T14:15:09;22.60;99.90
11559;DHT22;5835;42.930;25.178;2023-05-15T14:17:39;22.90;1.00
11559;DHT22;5835;42.930;25.178;2023-05-15T14:20:08;23.10;99.90
11559;DHT22;5835;42.930;25.178;2023-05-15T14:22:36;23.50;1.00
11559;DHT22;5835;42.930;25.178;2023-05-15T14:25:05;23.90;99.90
11559;DHT22;5835;42.930;25.178;2023-05-15T14:27:33;24.20;99.90
11559;DHT22;5835;42.930;25.178;2023-05-15T14:30:01;24.30;2.20
11559;DHT22;5835;42.930;25.178;2023-05-15T14:32:28;24.50;1.00
11559;DHT22;5835;42.930;25.178;2023-05-15T14:34:57;24.70;1.00
11559;DHT22;5835;42.930;25.178;2023-05-15T14:37:25;24.50;1.00
11559;DHT22;5835;42.930;25.178;2023-05-15T14:39:53;24.50;1.00
11559;DHT22;5835;42.930;25.178;2023-05-15T14:42:21;24.40;1.00
11559;DHT22;5835;42.930;25.178;2023-05-15T14:44:48;24.50;1.00
11559;DHT22;5835;42.930;25.178;2023-05-15T14:47:16;24.60;99.90
11559;DHT22;5835;42.930;25.178;2023-05-15T14:49:44;24.60;99.90
11559;DHT22;5835;42.930;25.178;2023-05-15T14:52:13;24.50;99.90
11559;DHT22;5835;42.930;25.178;2023-05-15T14:54:40;24.70;99.90
11559;DHT22;5835;42.930;25.178;2023-05-15T14:57:08;24.80;99.90
11559;DHT22;5835;42.930;25.178;2023-05-15T14:59:35;24.70;99.90
11559;DHT22;5835;42.930;25.178;2023-05-15T15:02:03;24.70;99.90
11559;DHT22;5835;42.930;25.178;2023-05-15T15:04:31;24.60;99.90
11559;DHT22;5835;42.930;25.178;2023-05-15T15:07:02;24.40;99.90
11559;DHT22;5835;42.930;25.178;2023-05-15T15:09:31;24.30;99.90
11559;DHT22;5835;42.930;25.178;2023-05-15T15:11:59;24.40;99.90
11559;DHT22;5835;42.930;25.178;2023-05-15T15:14:26;24.20;99.90
11559;DHT22;5835;42.930;25.178;2023-05-15T15:16:54;24.20;99.90
11559;DHT22;5835;42.930;25.178;2023-05-15T15:19:21;24.10;99.90
11559;DHT22;5835;42.930;25.178;2023-05-15T15:21:49;23.70;99.90
11559;DHT22;5835;42.930;25.178;2023-05-15T15:24:18;23.70;99.90
11559;DHT22;5835;42.930;25.178;2023-05-15T15:26:59;24.00;99.90
11559;DHT22;5835;42.930;25.178;2023-05-15T15:29:26;24.10;99.90
11559;DHT22;5835;42.930;25.178;2023-05-15T15:31:54;24.10;99.90
11559;DHT22;5835;42.930;25.178;2023-05-15T15:34:21;24.20;99.90
11559;DHT22;5835;42.930;25.178;2023-05-15T15:36:49;24.00;99.90
11559;DHT22;5835;42.930;25.178;2023-05-15T15:39:16;23.80;99.90
11559;DHT22;5835;42.930;25.178;2023-05-15T15:41:44;23.70;99.90
11559;DHT22;5835;42.930;25.178;2023-05-15T15:44:13;23.90;99.90
11559;DHT22;5835;42.930;25.178;2023-05-15T15:46:40;23.90;99.90
11559;DHT22;5835;42.930;25.178;2023-05-15T15:49:08;23.90;99.90